Denmark, Iowa
Current Conditions -  °F | °C
As of 8:15 AM on Thursday 30 Oct 2014 (Local Time) from KFSW Reporting Station
Broken Clouds Broken Clouds  
Wind Chill: 40°   Ceiling: 10000
Heat Index: 45°   Visibility: 10mi
Dew Point: 37°   Wind: 9mph
Humidity: 76%   Direction: 150°SSE
Pressure: 30.09"   Gusts: NA
Location:  40.74°N, 91.34°W
Report Text: KFSW 301315Z AUTO 15008KT 10SM BKN100 07/03 A3009 RMK AO2
Loading
Personal Weather Stations






























Interactive Weather Map New forecast layout! Learn more

10-Day Weather Forecast

Advertisements
Track Severe Weather on mobile